createdAt,value
2022-09-16T00:00:32.239Z,6.63
2022-09-16T00:02:58.921Z,5.67
2022-09-16T00:05:26.157Z,9.17
2022-09-16T00:07:54.026Z,6.07
2022-09-16T00:10:21.581Z,7.73
2022-09-16T00:12:49.250Z,6.07
2022-09-16T00:15:16.155Z,12.50
2022-09-16T00:17:42.692Z,8.60
2022-09-16T00:20:09.752Z,7.83
2022-09-16T00:22:36.288Z,10.53
2022-09-16T00:25:02.891Z,8.87
2022-09-16T00:27:29.449Z,12.80
2022-09-16T00:29:55.945Z,7.90
2022-09-16T00:32:24.191Z,12.53
2022-09-16T00:34:51.714Z,6.53
2022-09-16T00:37:18.368Z,7.83
2022-09-16T00:39:47.322Z,6.13
2022-09-16T00:42:13.919Z,9.40
2022-09-16T00:44:54.279Z,9.17
2022-09-16T00:47:43.725Z,9.63
2022-09-16T00:50:36.396Z,8.83
2022-09-16T00:53:03.475Z,7.80
2022-09-16T00:55:33.989Z,5.57
2022-09-16T00:58:10.386Z,6.97
2022-09-16T01:00:38.409Z,8.23
2022-09-16T01:03:06.049Z,6.83
2022-09-16T01:05:34.007Z,7.30
2022-09-16T01:08:01.134Z,4.43
2022-09-16T01:10:27.853Z,4.93
2022-09-16T01:13:02.703Z,5.17
2022-09-16T01:15:56.730Z,4.00
2022-09-16T01:18:23.488Z,5.50
2022-09-16T01:21:38.907Z,5.53
2022-09-16T01:24:32.941Z,4.50
2022-09-16T01:26:59.499Z,9.73
2022-09-16T01:29:52.424Z,8.03
2022-09-16T01:32:21.588Z,3.40
2022-09-16T01:35:08.372Z,4.07
2022-09-16T01:37:40.906Z,6.03
2022-09-16T01:40:18.692Z,7.20
2022-09-16T01:42:47.548Z,7.77
2022-09-16T01:45:38.337Z,6.70
2022-09-16T01:48:04.831Z,9.13
2022-09-16T01:51:12.334Z,4.57
2022-09-16T01:53:43.916Z,7.63
2022-09-16T01:56:18.460Z,7.13
2022-09-16T01:59:19.093Z,8.63
2022-09-16T02:02:12.401Z,8.43
2022-09-16T02:04:50.885Z,8.90
2022-09-16T02:07:21.903Z,9.63
2022-09-16T02:09:58.133Z,8.17
2022-09-16T02:12:29.295Z,5.90
2022-09-16T02:15:03.732Z,6.93
2022-09-16T02:17:33.969Z,7.00
2022-09-16T02:20:09.044Z,9.83
2022-09-16T02:22:44.803Z,7.27
2022-09-16T02:25:14.609Z,9.00
2022-09-16T02:27:45.803Z,7.80
2022-09-16T02:30:17.097Z,5.17
2022-09-16T02:32:47.134Z,7.23
2022-09-16T02:35:17.129Z,4.13
2022-09-16T02:37:50.477Z,8.43
2022-09-16T02:40:22.759Z,6.53
2022-09-16T02:42:49.755Z,6.30
2022-09-16T02:45:16.828Z,7.43
2022-09-16T02:47:46.327Z,5.03
2022-09-16T02:50:17.770Z,5.77
2022-09-16T02:52:53.245Z,7.63
2022-09-16T02:55:59.550Z,6.17
2022-09-16T02:58:26.198Z,7.40
2022-09-16T03:00:55.136Z,4.43
2022-09-16T03:03:22.098Z,4.83
2022-09-16T03:06:04.056Z,7.67
2022-09-16T03:08:30.660Z,7.47
2022-09-16T03:11:02.672Z,5.63
2022-09-16T03:13:42.047Z,7.33
2022-09-16T03:16:29.474Z,8.50
2022-09-16T03:19:18.583Z,7.00
2022-09-16T03:21:55.031Z,6.07
2022-09-16T03:24:45.673Z,6.03
2022-09-16T03:27:19.208Z,7.03
2022-09-16T03:29:54.707Z,6.97
2022-09-16T03:32:25.727Z,4.13
2022-09-16T03:34:59.863Z,5.37
2022-09-16T03:37:29.154Z,2.90
2022-09-16T03:39:58.129Z,8.03
2022-09-16T03:42:24.675Z,5.50
2022-09-16T03:44:51.159Z,9.37
2022-09-16T03:47:18.536Z,6.00
2022-09-16T03:49:46.474Z,8.87
2022-09-16T03:52:13.021Z,9.27
2022-09-16T03:54:39.651Z,4.23
2022-09-16T03:57:06.584Z,8.10
2022-09-16T03:59:33.220Z,4.50
2022-09-16T04:01:59.755Z,4.07
2022-09-16T04:04:26.308Z,5.33
2022-09-16T04:06:52.862Z,5.23
2022-09-16T04:09:19.422Z,3.73
2022-09-16T04:11:45.912Z,8.20
2022-09-16T04:14:12.608Z,5.47
2022-09-16T04:16:44.310Z,4.17
2022-09-16T04:19:17.047Z,7.13
2022-09-16T04:21:43.585Z,3.80
2022-09-16T04:24:13.179Z,4.80
2022-09-16T04:26:40.995Z,6.10
2022-09-16T04:29:08.118Z,5.37
2022-09-16T04:31:34.871Z,6.63
2022-09-16T04:34:02.781Z,5.63
2022-09-16T04:36:29.311Z,4.57
2022-09-16T04:38:55.799Z,6.53
2022-09-16T04:41:24.584Z,8.27
2022-09-16T04:43:56.438Z,8.10
2022-09-16T04:46:24.663Z,7.40
2022-09-16T04:48:52.848Z,8.00
2022-09-16T04:51:20.164Z,6.37
2022-09-16T04:53:47.292Z,7.50
2022-09-16T04:56:19.718Z,5.90
2022-09-16T04:58:51.750Z,7.00
2022-09-16T05:01:21.009Z,7.50
2022-09-16T05:03:49.656Z,5.60
2022-09-16T05:06:22.399Z,7.73
2022-09-16T05:08:49.886Z,7.67
2022-09-16T05:11:19.360Z,7.90
2022-09-16T05:13:46.766Z,6.90
2022-09-16T05:16:16.209Z,5.83
2022-09-16T05:18:44.705Z,5.03
2022-09-16T05:21:13.747Z,6.57
2022-09-16T05:23:45.942Z,7.27
2022-09-16T05:26:16.624Z,7.27
2022-09-16T05:28:43.684Z,6.53
2022-09-16T05:31:17.855Z,6.43
2022-09-16T05:33:47.563Z,8.67
2022-09-16T05:36:16.884Z,4.20
2022-09-16T05:38:59.193Z,7.73
2022-09-16T05:41:30.473Z,8.87
2022-09-16T05:44:01.120Z,4.83
2022-09-16T05:46:28.832Z,7.17
2022-09-16T05:48:56.493Z,6.07
2022-09-16T05:51:24.927Z,7.43
2022-09-16T05:53:53.240Z,6.37
2022-09-16T05:56:25.851Z,11.70
2022-09-16T05:58:58.113Z,8.27
2022-09-16T06:01:28.185Z,4.67
2022-09-16T06:03:55.240Z,8.30
2022-09-16T06:06:26.143Z,6.93
2022-09-16T06:08:56.361Z,7.17
2022-09-16T06:11:23.952Z,10.97
2022-09-16T06:13:58.457Z,12.93
2022-09-16T06:16:26.291Z,9.13
2022-09-16T06:18:53.607Z,13.30
2022-09-16T06:21:20.755Z,6.03
2022-09-16T06:23:47.228Z,9.73
2022-09-16T06:26:19.266Z,7.07
2022-09-16T06:28:47.170Z,8.10
2022-09-16T06:31:17.924Z,8.67
2022-09-16T06:33:44.723Z,3.43
2022-09-16T06:36:16.280Z,6.43
2022-09-16T06:38:43.828Z,9.17
2022-09-16T06:41:12.375Z,8.23
2022-09-16T06:43:39.263Z,7.80
2022-09-16T06:46:13.700Z,6.80
2022-09-16T06:48:41.231Z,8.90
2022-09-16T06:51:11.004Z,7.80
2022-09-16T06:53:37.688Z,5.37
2022-09-16T06:56:07.085Z,7.70
2022-09-16T06:58:36.041Z,6.47
2022-09-16T07:01:11.421Z,8.67
2022-09-16T07:03:43.103Z,5.87
2022-09-16T07:06:11.566Z,11.90
2022-09-16T07:08:39.328Z,10.03
2022-09-16T07:11:11.563Z,7.90
2022-09-16T07:13:38.233Z,4.77
2022-09-16T07:16:18.089Z,8.93
2022-09-16T07:18:44.989Z,9.57
2022-09-16T07:21:14.236Z,8.20
2022-09-16T07:23:41.856Z,5.33
2022-09-16T07:26:11.415Z,7.23
2022-09-16T07:28:39.758Z,7.03
2022-09-16T07:31:12.117Z,7.13
2022-09-16T07:33:40.860Z,4.40
2022-09-16T07:36:09.608Z,5.07
2022-09-16T07:38:36.554Z,6.97
2022-09-16T07:41:15.047Z,5.83
2022-09-16T07:43:43.360Z,7.13
2022-09-16T07:46:11.713Z,8.60
2022-09-16T07:48:38.906Z,6.90
2022-09-16T07:51:08.441Z,9.53
2022-09-16T07:53:35.671Z,7.43
2022-09-16T07:56:10.865Z,6.67
2022-09-16T07:58:38.582Z,6.57
2022-09-16T08:01:07.751Z,9.27
2022-09-16T08:03:36.011Z,7.90
2022-09-16T08:06:05.922Z,9.57
2022-09-16T08:08:33.781Z,6.10
2022-09-16T08:11:01.735Z,5.03
2022-09-16T08:13:31.176Z,5.00
2022-09-16T08:16:07.092Z,7.83
2022-09-16T08:18:34.317Z,8.17
2022-09-16T08:21:08.139Z,4.87
2022-09-16T08:23:38.844Z,5.43
2022-09-16T08:26:08.431Z,7.90
2022-09-16T08:28:45.209Z,8.93
2022-09-16T08:31:19.223Z,7.30
2022-09-16T08:33:46.359Z,10.90
2022-09-16T08:36:16.805Z,9.13
2022-09-16T08:38:44.900Z,7.53
2022-09-16T08:41:35.953Z,6.80
2022-09-16T08:44:30.037Z,11.10
2022-09-16T08:47:00.029Z,6.37
2022-09-16T08:49:33.065Z,7.70
2022-09-16T08:52:02.759Z,8.83
2022-09-16T08:54:45.233Z,12.37
2022-09-16T08:57:17.430Z,5.33
2022-09-16T08:59:51.427Z,11.00
2022-09-16T09:05:19.591Z,5.67
2022-09-16T09:07:51.445Z,7.40
2022-09-16T09:10:31.653Z,8.37
2022-09-16T09:13:29.009Z,6.40
2022-09-16T09:16:05.692Z,9.80
2022-09-16T09:18:48.527Z,8.10
2022-09-16T09:21:42.734Z,6.50
2022-09-16T09:24:31.115Z,8.63
2022-09-16T09:27:14.433Z,2.43
2022-09-16T09:30:03.420Z,3.47
2022-09-16T09:32:48.455Z,5.07
2022-09-16T09:35:51.692Z,5.17
2022-09-16T09:38:21.258Z,5.83
2022-09-16T09:41:04.371Z,5.03
2022-09-16T09:44:09.280Z,6.23
2022-09-16T09:46:40.264Z,5.70
2022-09-16T09:49:28.183Z,5.77
2022-09-16T09:52:42.090Z,7.70
2022-09-16T09:55:18.920Z,5.83
2022-09-16T09:58:01.247Z,5.50
2022-09-16T10:00:28.188Z,10.10
2022-09-16T10:03:04.730Z,9.37
2022-09-16T10:05:31.501Z,7.67
2022-09-16T10:08:04.001Z,8.17
2022-09-16T10:10:34.217Z,9.43
2022-09-16T10:13:09.316Z,7.60
2022-09-16T10:15:36.334Z,7.57
2022-09-16T10:18:11.871Z,7.97
2022-09-16T10:20:42.862Z,5.13
2022-09-16T10:23:15.573Z,7.97
2022-09-16T10:25:42.972Z,9.50
2022-09-16T10:28:26.726Z,6.93
2022-09-16T10:30:56.350Z,6.23
2022-09-16T10:33:30.335Z,4.47
2022-09-16T10:36:02.121Z,7.23
2022-09-16T10:38:43.987Z,4.40
2022-09-16T10:41:22.513Z,6.90
2022-09-16T10:44:03.952Z,9.13
2022-09-16T10:46:31.174Z,6.43
2022-09-16T10:49:05.579Z,9.03
2022-09-16T10:51:34.712Z,9.23
2022-09-16T10:54:04.869Z,8.00
2022-09-16T10:56:47.068Z,4.60
2022-09-16T10:59:15.860Z,5.73
2022-09-16T11:01:47.351Z,8.73
2022-09-16T11:04:29.900Z,9.90
2022-09-16T11:07:14.845Z,9.77
2022-09-16T11:09:59.837Z,8.53
2022-09-16T11:12:44.189Z,6.53
2022-09-16T11:15:28.073Z,6.10
2022-09-16T11:18:26.718Z,5.93
2022-09-16T11:21:02.539Z,5.73
2022-09-16T11:23:49.515Z,8.90
2022-09-16T11:26:16.005Z,11.30
2022-09-16T11:29:01.041Z,8.13
2022-09-16T11:32:09.373Z,7.13
2022-09-16T11:34:51.058Z,7.53
2022-09-16T11:37:29.753Z,4.37
2022-09-16T11:40:19.702Z,5.60
2022-09-16T11:42:59.345Z,9.07
2022-09-16T11:45:46.908Z,6.63
2022-09-16T11:48:34.804Z,7.33
2022-09-16T11:51:11.216Z,8.90
2022-09-16T11:53:50.488Z,10.77
2022-09-16T11:56:35.857Z,6.40
2022-09-16T11:59:30.653Z,6.67
2022-09-16T12:02:15.485Z,10.80
2022-09-16T12:04:49.399Z,9.83
2022-09-16T12:07:34.701Z,7.30
2022-09-16T12:10:12.741Z,5.57
2022-09-16T12:12:46.131Z,5.13
2022-09-16T12:15:18.778Z,5.17
2022-09-16T12:18:12.212Z,7.80
2022-09-16T12:20:44.261Z,7.10
2022-09-16T12:23:27.803Z,9.93
2022-09-16T12:26:14.333Z,6.97
2022-09-16T12:28:59.507Z,3.77
2022-09-16T12:31:57.072Z,8.27
2022-09-16T12:34:33.364Z,11.23
2022-09-16T12:37:30.259Z,14.00
2022-09-16T12:39:56.957Z,5.03
2022-09-16T12:42:35.367Z,7.77
2022-09-16T12:45:08.189Z,6.93
2022-09-16T12:47:42.376Z,7.67
2022-09-16T12:50:27.477Z,10.77
2022-09-16T12:53:12.345Z,6.40
2022-09-16T12:55:51.195Z,8.70
2022-09-16T12:58:32.933Z,4.40
2022-09-16T13:01:37.226Z,5.37
2022-09-16T13:04:13.183Z,7.60
2022-09-16T13:06:52.581Z,8.90
2022-09-16T13:09:33.385Z,5.80
2022-09-16T13:15:01.960Z,5.93
2022-09-16T13:17:39.326Z,6.43
2022-09-16T13:20:11.798Z,5.13
2022-09-16T13:22:56.579Z,7.03
2022-09-16T13:25:45.088Z,6.87
2022-09-16T13:28:41.380Z,8.80
2022-09-16T13:31:33.935Z,6.37
2022-09-16T13:34:00.893Z,6.47
2022-09-16T13:36:28.449Z,7.10
2022-09-16T13:38:57.590Z,5.63
2022-09-16T13:41:47.722Z,6.37
2022-09-16T13:44:39.442Z,6.30
2022-09-16T13:47:09.311Z,8.10
2022-09-16T13:49:44.519Z,5.43
2022-09-16T13:52:13.480Z,5.93
2022-09-16T13:55:11.686Z,6.80
2022-09-16T13:57:42.073Z,10.60
2022-09-16T14:00:43.964Z,8.13
2022-09-16T14:03:41.783Z,8.97
2022-09-16T14:06:31.333Z,7.50
2022-09-16T14:09:01.805Z,8.57
2022-09-16T14:11:49.757Z,6.67
2022-09-16T14:14:45.929Z,7.83
2022-09-16T14:17:17.113Z,7.73
2022-09-16T14:19:46.898Z,10.00
2022-09-16T14:22:16.428Z,7.53
2022-09-16T14:24:44.863Z,12.27
2022-09-16T14:27:26.584Z,7.70
2022-09-16T14:29:58.510Z,6.97
2022-09-16T14:32:29.297Z,8.13
2022-09-16T14:34:59.379Z,6.97
2022-09-16T14:37:29.119Z,9.03
2022-09-16T14:40:02.531Z,8.97
2022-09-16T14:42:30.287Z,9.33
2022-09-16T14:44:58.777Z,4.50
2022-09-16T14:47:51.150Z,6.57
2022-09-16T14:50:26.265Z,5.97
2022-09-16T14:53:00.171Z,9.13
2022-09-16T14:55:30.100Z,5.90
2022-09-16T14:58:00.272Z,6.27
2022-09-16T15:00:44.235Z,4.97
2022-09-16T15:03:20.011Z,4.57
2022-09-16T15:05:47.496Z,3.93
2022-09-16T15:08:26.845Z,4.60
2022-09-16T15:10:57.643Z,6.67
2022-09-16T15:13:30.569Z,4.77
2022-09-16T15:16:08.296Z,6.20
2022-09-16T15:18:37.716Z,7.07
2022-09-16T15:21:17.321Z,8.87
2022-09-16T15:23:48.042Z,7.43
2022-09-16T15:26:32.100Z,6.57
2022-09-16T15:29:03.960Z,4.53
2022-09-16T15:31:34.864Z,12.63
2022-09-16T15:34:05.022Z,8.67
2022-09-16T15:36:34.679Z,7.30
2022-09-16T15:39:01.217Z,8.10
2022-09-16T15:41:28.098Z,8.17
2022-09-16T15:43:54.620Z,10.80
2022-09-16T15:46:23.755Z,13.97
2022-09-16T15:48:58.520Z,12.27
2022-09-16T15:51:33.469Z,9.13
2022-09-16T15:54:07.878Z,9.37
2022-09-16T15:56:49.464Z,14.27
2022-09-16T15:59:32.617Z,11.17
2022-09-16T16:02:02.599Z,18.30
2022-09-16T16:04:33.768Z,19.67
2022-09-16T16:07:02.936Z,21.03
2022-09-16T16:09:29.389Z,18.27
2022-09-16T16:12:11.429Z,18.77
2022-09-16T16:14:39.722Z,23.07
2022-09-16T16:17:15.198Z,16.37
2022-09-16T16:19:43.757Z,21.73
2022-09-16T16:22:11.729Z,18.17
2022-09-16T16:24:38.992Z,19.57
2022-09-16T16:27:06.126Z,19.47
2022-09-16T16:29:32.737Z,21.07
2022-09-16T16:32:03.923Z,19.17
2022-09-16T16:34:42.436Z,19.47
2022-09-16T16:37:23.217Z,17.77
2022-09-16T16:39:57.711Z,18.17
2022-09-16T16:42:24.871Z,17.83
2022-09-16T16:44:51.517Z,17.90
2022-09-16T16:47:18.042Z,18.60
2022-09-16T16:49:51.326Z,23.50
2022-09-16T16:52:18.403Z,16.50
2022-09-16T16:54:45.903Z,16.90
2022-09-16T16:57:12.473Z,17.03
2022-09-16T16:59:39.198Z,16.57
2022-09-16T17:02:06.074Z,22.13
2022-09-16T17:04:32.623Z,18.83
2022-09-16T17:07:24.214Z,18.63
2022-09-16T17:09:45.741Z,15.43
2022-09-16T17:12:13.036Z,13.07
2022-09-16T17:14:39.557Z,15.00
2022-09-16T17:17:06.233Z,17.97
2022-09-16T17:19:32.747Z,15.03
2022-09-16T17:21:59.341Z,20.33
2022-09-16T17:24:25.945Z,13.23
2022-09-16T17:26:52.435Z,20.50
2022-09-16T17:29:18.960Z,19.27
2022-09-16T17:31:45.454Z,17.93
2022-09-16T17:34:14.130Z,17.90
2022-09-16T17:36:43.343Z,15.37
2022-09-16T17:39:20.703Z,11.67
2022-09-16T17:41:51.575Z,19.50
2022-09-16T17:44:19.746Z,18.70
2022-09-16T17:46:47.075Z,21.23
2022-09-16T17:49:18.231Z,15.43
2022-09-16T17:51:45.358Z,18.30
2022-09-16T17:54:12.280Z,14.43
2022-09-16T17:56:39.077Z,17.87
2022-09-16T17:59:05.907Z,16.90
2022-09-16T18:01:32.500Z,18.17
2022-09-16T18:03:59.713Z,16.80
2022-09-16T18:06:35.551Z,21.47
2022-09-16T18:09:07.341Z,17.23
2022-09-16T18:11:34.902Z,16.53
2022-09-16T18:14:04.506Z,14.13
2022-09-16T18:16:31.791Z,18.13
2022-09-16T18:19:00.044Z,20.07
2022-09-16T18:21:27.783Z,14.60
2022-09-16T18:23:56.601Z,20.60
2022-09-16T18:26:23.803Z,22.07
2022-09-16T18:29:09.228Z,20.33
2022-09-16T18:31:36.578Z,17.30
2022-09-16T18:34:03.190Z,15.20
2022-09-16T18:36:30.525Z,19.13
2022-09-16T18:38:58.475Z,15.03
2022-09-16T18:41:30.092Z,21.23
2022-09-16T18:43:59.539Z,18.50
2022-09-16T18:46:28.883Z,15.47
2022-09-16T18:48:56.400Z,18.47
2022-09-16T18:51:26.056Z,14.80
2022-09-16T18:53:56.100Z,17.97
2022-09-16T18:56:25.032Z,19.10
2022-09-16T18:59:19.514Z,13.73
2022-09-16T19:01:41.496Z,10.70
2022-09-16T19:04:10.576Z,15.50
2022-09-16T19:06:40.432Z,17.83
2022-09-16T19:09:09.756Z,12.87
2022-09-16T19:11:37.543Z,17.57
2022-09-16T19:14:06.063Z,16.87
2022-09-16T19:16:33.240Z,18.33
2022-09-16T19:19:02.023Z,14.27
2022-09-16T19:21:28.854Z,12.90
2022-09-16T19:23:58.963Z,17.33
2022-09-16T19:26:27.747Z,17.00
2022-09-16T19:28:54.431Z,13.57
2022-09-16T19:31:21.091Z,12.93
2022-09-16T19:33:48.416Z,15.70
2022-09-16T19:36:21.902Z,16.83
2022-09-16T19:38:50.021Z,13.97
2022-09-16T19:41:18.094Z,15.70
2022-09-16T19:43:45.691Z,14.40
2022-09-16T19:46:15.223Z,9.27
2022-09-16T19:48:45.095Z,12.93
2022-09-16T19:51:13.848Z,14.37
2022-09-16T19:53:42.186Z,13.57
2022-09-16T19:56:14.804Z,11.63
2022-09-16T19:58:41.727Z,16.07
2022-09-16T20:01:11.317Z,13.80
2022-09-16T20:03:40.956Z,17.73
2022-09-16T20:06:15.972Z,17.20
2022-09-16T20:08:44.600Z,12.43
2022-09-16T20:11:17.905Z,16.63
2022-09-16T20:13:52.459Z,14.90
2022-09-16T20:16:20.794Z,18.57
2022-09-16T20:18:47.858Z,17.97
2022-09-16T20:21:20.573Z,15.00
2022-09-16T20:23:48.216Z,14.50
2022-09-16T20:26:19.909Z,13.57
2022-09-16T20:28:51.753Z,10.10
2022-09-16T20:31:24.072Z,10.80
2022-09-16T20:33:51.758Z,13.70
2022-09-16T20:36:23.591Z,17.77
2022-09-16T20:38:51.074Z,14.13
2022-09-16T20:41:24.138Z,10.60
2022-09-16T20:43:52.288Z,10.70
2022-09-16T20:46:31.579Z,8.30
2022-09-16T20:49:03.314Z,13.10
2022-09-16T20:51:33.641Z,11.80
2022-09-16T20:54:09.071Z,11.70
2022-09-16T20:56:39.887Z,16.20
2022-09-16T20:59:12.180Z,12.73
2022-09-16T21:01:40.576Z,11.73
2022-09-16T21:04:11.458Z,11.90
2022-09-16T21:06:37.986Z,14.90
2022-09-16T21:09:08.886Z,12.50
2022-09-16T21:11:36.003Z,15.37
2022-09-16T21:14:07.193Z,12.20
2022-09-16T21:16:36.079Z,10.50
2022-09-16T21:19:04.903Z,12.27
2022-09-16T21:21:32.123Z,13.53
2022-09-16T21:24:00.509Z,20.97
2022-09-16T21:26:30.340Z,15.87
2022-09-16T21:28:59.845Z,11.80
2022-09-16T21:31:29.416Z,13.63
2022-09-16T21:33:56.849Z,13.67
2022-09-16T21:36:24.786Z,16.20
2022-09-16T21:38:52.131Z,19.10
2022-09-16T21:41:21.358Z,19.63
2022-09-16T21:43:55.505Z,15.40
2022-09-16T21:46:27.863Z,16.53
2022-09-16T21:49:00.215Z,15.30
2022-09-16T21:51:34.786Z,21.30
2022-09-16T21:54:05.758Z,27.60
2022-09-16T21:56:32.541Z,20.93
2022-09-16T21:59:00.261Z,25.50
2022-09-16T22:01:30.086Z,27.57
2022-09-16T22:04:01.937Z,33.50
2022-09-16T22:06:29.035Z,23.63
2022-09-16T22:08:58.661Z,25.57
2022-09-16T22:11:27.468Z,31.73
2022-09-16T22:13:55.463Z,24.27
2022-09-16T22:16:28.763Z,24.40
2022-09-16T22:18:58.135Z,25.17
2022-09-16T22:21:27.280Z,22.67
2022-09-16T22:23:54.088Z,28.40
2022-09-16T22:26:22.715Z,29.17
2022-09-16T22:28:50.569Z,25.17
2022-09-16T22:31:29.112Z,29.77
2022-09-16T22:33:58.057Z,30.67
2022-09-16T22:36:27.326Z,31.20
2022-09-16T22:39:01.425Z,32.17
2022-09-16T22:41:29.118Z,19.87
2022-09-16T22:43:55.646Z,29.37
2022-09-16T22:46:28.121Z,29.57
2022-09-16T22:48:56.191Z,28.63
2022-09-16T22:51:23.125Z,30.67
2022-09-16T22:53:49.689Z,25.70
2022-09-16T22:56:22.249Z,23.27
2022-09-16T22:58:53.452Z,29.57
2022-09-16T23:01:23.171Z,28.33
2022-09-16T23:03:54.486Z,26.70
2022-09-16T23:06:21.967Z,23.43
2022-09-16T23:08:48.692Z,22.20
2022-09-16T23:11:19.831Z,24.27
2022-09-16T23:13:50.286Z,18.90
2022-09-16T23:16:21.161Z,23.73
2022-09-16T23:18:48.872Z,20.33
2022-09-16T23:21:18.308Z,25.27
2022-09-16T23:23:47.038Z,22.57
2022-09-16T23:26:16.804Z,22.80
2022-09-16T23:28:43.862Z,26.80
2022-09-16T23:31:13.352Z,27.57
2022-09-16T23:33:41.040Z,23.67
2022-09-16T23:36:08.981Z,30.97
2022-09-16T23:38:37.568Z,23.57
2022-09-16T23:41:13.389Z,26.73
2022-09-16T23:43:41.661Z,22.17
2022-09-16T23:46:09.934Z,22.37
2022-09-16T23:48:38.693Z,16.73
2022-09-16T23:51:06.011Z,19.30
2022-09-16T23:53:33.305Z,19.03
2022-09-16T23:55:59.947Z,12.73
2022-09-16T23:58:26.409Z,20.67
